PWSweather.com
Personal Weather Stations
Station Observations
46800
XativaES 46800

XativaES 46800

Lat: 38.9917502, Lon: -0.5136488000000554

Elevation: 103

Station Type: Davis Vantage Pro2 Aspirated

http://www.meteoxativa.es/

Latest ConditionsUpdated 10:15:11 PM GMT+01:01 Thursday, Sep 21, 2017
Currently Today's Max Today's Min Today's Average
Temperature 70.5°F21.4°C 83.8°F28.8°C 63.8°F17.7°C 73.5°F23.1°C
Dew Point 63.0°F17.2°C 65.6°F18.7°C 56.9°F13.8°C 62.6°F17.0°C
Winds 5.8 mph W9.3 kmh W 5.8 mph W9.3 kmh W - 1.5 mph 2.4 kmh
Wind Gusts 9.2 mph14.8 kmh 9.2 mph14.8 kmh - -
Humidity 77% 86% 45% 70%
Pressure 30.03 in1016.9 mb 30.06 in1017.9 mb 29.94 in1013.9 mb -
Hour Temp Dew Point Humidity Winds Wind Gusts Pressure Precip Precip Rate Daily Precip Total
10:15 PM 70.5°F21.4°C 63.0°F17.2°C 77% 5.8 mph W9.3 kmh W 9.2 mph14.8 kmh 30.03 in1016.9 mb - 0.00 in0.0 mm 0.00 in0.0 mm
10:00 PM 70.7°F21.5°C 63.2°F17.3°C 77% 3.5 mph W5.6 kmh W 6.9 mph11.1 kmh 30.03 in1016.9 mb - 0.00 in0.0 mm 0.00 in0.0 mm
09:45 PM 70.9°F21.6°C 63.4°F17.4°C 77% 2.3 mph WSW3.7 kmh WSW 3.5 mph5.6 kmh 30.02 in1016.6 mb - 0.00 in0.0 mm 0.00 in0.0 mm
09:30 PM 71.1°F21.7°C 63.6°F17.6°C 77% 4.6 mph W7.4 kmh W 5.8 mph9.3 kmh 30.02 in1016.6 mb - 0.00 in0.0 mm 0.00 in0.0 mm
09:15 PM 71.5°F21.9°C 63.9°F17.7°C 77% 4.6 mph WSW7.4 kmh WSW 5.8 mph9.3 kmh 30.02 in1016.6 mb - 0.00 in0.0 mm 0.00 in0.0 mm
09:00 PM 71.8°F22.1°C 64.2°F17.9°C 77% 2.3 mph WSW3.7 kmh WSW 3.5 mph5.6 kmh 30.01 in1016.3 mb - 0.00 in0.0 mm 0.00 in0.0 mm
08:45 PM 72.1°F22.3°C 64.2°F17.9°C 76% 2.3 mph WSW3.7 kmh WSW 3.5 mph5.6 kmh 30.01 in1016.3 mb - 0.00 in0.0 mm 0.00 in0.0 mm
08:30 PM 72.5°F22.5°C 64.5°F18.1°C 76% 3.5 mph W5.6 kmh W 3.5 mph5.6 kmh 30.00 in1015.9 mb - 0.00 in0.0 mm 0.00 in0.0 mm
08:15 PM 73.1°F22.8°C 64.7°F18.2°C 75% 5.8 mph WSW9.3 kmh WSW 6.9 mph11.1 kmh 30.00 in1015.9 mb - 0.00 in0.0 mm 0.00 in0.0 mm
08:00 PM 73.6°F23.1°C 64.8°F18.2°C 74% 3.5 mph W5.6 kmh W 3.5 mph5.6 kmh 29.99 in1015.6 mb - 0.00 in0.0 mm 0.00 in0.0 mm
07:45 PM 74.4°F23.6°C 65.1°F18.4°C 73% 3.5 mph W5.6 kmh W 6.9 mph11.1 kmh 29.99 in1015.6 mb - 0.00 in0.0 mm 0.00 in0.0 mm
07:30 PM 75.4°F24.1°C 64.9°F18.3°C 70% 3.5 mph N5.6 kmh N 8.1 mph13.0 kmh 29.98 in1015.2 mb - 0.00 in0.0 mm 0.00 in0.0 mm
07:15 PM 76.6°F24.8°C 65.2°F18.4°C 68% 1.2 mph NW1.9 kmh NW 3.5 mph5.6 kmh 29.98 in1015.2 mb - 0.00 in0.0 mm 0.00 in0.0 mm
07:00 PM 77.8°F25.4°C 64.2°F17.9°C 63% 3.5 mph NW5.6 kmh NW 4.6 mph7.4 kmh 29.97 in1014.9 mb - 0.00 in0.0 mm 0.00 in0.0 mm
06:45 PM 78.7°F25.9°C 64.1°F17.8°C 61% 2.3 mph NNW3.7 kmh NNW 4.6 mph7.4 kmh 29.97 in1014.9 mb - 0.00 in0.0 mm 0.00 in0.0 mm
06:30 PM 79.6°F26.4°C 64.0°F17.8°C 59% Calm Calm 1.2 mph1.9 kmh 29.96 in1014.6 mb - 0.00 in0.0 mm 0.00 in0.0 mm
06:15 PM 80.7°F27.1°C 64.5°F18.1°C 58% 3.5 mph NW5.6 kmh NW 6.9 mph11.1 kmh 29.96 in1014.6 mb - 0.00 in0.0 mm 0.00 in0.0 mm
06:00 PM 81.5°F27.5°C 64.3°F17.9°C 56% 1.2 mph NE1.9 kmh NE 3.5 mph5.6 kmh 29.95 in1014.2 mb - 0.00 in0.0 mm 0.00 in0.0 mm
05:45 PM 81.7°F27.6°C 64.5°F18.1°C 56% 3.5 mph N5.6 kmh N 3.5 mph5.6 kmh 29.95 in1014.2 mb - 0.00 in0.0 mm 0.00 in0.0 mm
05:30 PM 81.8°F27.7°C 64.6°F18.1°C 56% 1.2 mph N1.9 kmh N 3.5 mph5.6 kmh 29.95 in1014.2 mb - 0.00 in0.0 mm 0.00 in0.0 mm
05:15 PM 82.2°F27.9°C 64.4°F18.0°C 55% 4.6 mph N7.4 kmh N 8.1 mph13.0 kmh 29.94 in1013.9 mb - 0.00 in0.0 mm 0.00 in0.0 mm
05:00 PM 82.8°F28.2°C 65.0°F18.3°C 55% 2.3 mph N3.7 kmh N 3.5 mph5.6 kmh 29.94 in1013.9 mb - 0.00 in0.0 mm 0.00 in0.0 mm
04:45 PM 82.6°F28.1°C 64.8°F18.2°C 55% 3.5 mph N5.6 kmh N 5.8 mph9.3 kmh 29.94 in1013.9 mb - 0.00 in0.0 mm 0.00 in0.0 mm
04:30 PM 82.9°F28.3°C 65.1°F18.4°C 55% 3.5 mph NNW5.6 kmh NNW 4.6 mph7.4 kmh 29.94 in1013.9 mb - 0.00 in0.0 mm 0.00 in0.0 mm
04:15 PM 83.0°F28.3°C 65.2°F18.4°C 55% 4.6 mph N7.4 kmh N 5.8 mph9.3 kmh 29.95 in1014.2 mb - 0.00 in0.0 mm 0.00 in0.0 mm
04:00 PM 83.2°F28.4°C 65.4°F18.6°C 55% 3.5 mph WNW5.6 kmh WNW 8.1 mph13.0 kmh 29.95 in1014.2 mb - 0.00 in0.0 mm 0.00 in0.0 mm
03:45 PM 83.5°F28.6°C 65.6°F18.7°C 55% 3.5 mph N5.6 kmh N 4.6 mph7.4 kmh 29.95 in1014.2 mb - 0.00 in0.0 mm 0.00 in0.0 mm
03:30 PM 83.7°F28.7°C 65.3°F18.5°C 54% 1.2 mph NNE1.9 kmh NNE 3.5 mph5.6 kmh 29.95 in1014.2 mb - 0.00 in0.0 mm 0.00 in0.0 mm
03:15 PM 83.5°F28.6°C 65.1°F18.4°C 54% 4.6 mph N7.4 kmh N 9.2 mph14.8 kmh 29.95 in1014.2 mb - 0.00 in0.0 mm 0.00 in0.0 mm
03:00 PM 82.9°F28.3°C 64.6°F18.1°C 54% 2.3 mph N3.7 kmh N 3.5 mph5.6 kmh 29.95 in1014.2 mb - 0.00 in0.0 mm 0.00 in0.0 mm
02:45 PM 83.1°F28.4°C 64.7°F18.2°C 54% 3.5 mph N5.6 kmh N 4.6 mph7.4 kmh 29.96 in1014.6 mb - 0.00 in0.0 mm 0.00 in0.0 mm
02:30 PM 82.8°F28.2°C 63.4°F17.4°C 52% 4.6 mph NW7.4 kmh NW 8.1 mph13.0 kmh 29.96 in1014.6 mb - 0.00 in0.0 mm 0.00 in0.0 mm
02:15 PM 83.8°F28.8°C 62.0°F16.7°C 48% 3.5 mph NNE5.6 kmh NNE 4.6 mph7.4 kmh 29.97 in1014.9 mb - 0.00 in0.0 mm 0.00 in0.0 mm
02:00 PM 82.6°F28.1°C 61.0°F16.1°C 48% 2.3 mph NNE3.7 kmh NNE 3.5 mph5.6 kmh 29.97 in1014.9 mb - 0.00 in0.0 mm 0.00 in0.0 mm
01:45 PM 82.6°F28.1°C 59.8°F15.4°C 46% 2.3 mph NNE3.7 kmh NNE 3.5 mph5.6 kmh 29.98 in1015.2 mb - 0.00 in0.0 mm 0.00 in0.0 mm
01:30 PM 83.1°F28.4°C 59.6°F15.3°C 45% 4.6 mph N7.4 kmh N 5.8 mph9.3 kmh 29.98 in1015.2 mb - 0.00 in0.0 mm 0.00 in0.0 mm
01:15 PM 81.8°F27.7°C 59.6°F15.3°C 47% 2.3 mph NNE3.7 kmh NNE 3.5 mph5.6 kmh 29.99 in1015.6 mb - 0.00 in0.0 mm 0.00 in0.0 mm
01:00 PM 81.3°F27.4°C 58.6°F14.8°C 46% 2.3 mph NNE3.7 kmh NNE 3.5 mph5.6 kmh 30.00 in1015.9 mb - 0.00 in0.0 mm 0.00 in0.0 mm
12:45 PM 80.0°F26.7°C 57.3°F14.1°C 46% 2.3 mph N3.7 kmh N 3.5 mph5.6 kmh 30.00 in1015.9 mb - 0.00 in0.0 mm 0.00 in0.0 mm
12:30 PM 79.2°F26.2°C 57.8°F14.3°C 48% 1.2 mph E1.9 kmh E 2.3 mph3.7 kmh 30.01 in1016.3 mb - 0.00 in0.0 mm 0.00 in0.0 mm
12:15 PM 78.4°F25.8°C 58.2°F14.6°C 50% 1.2 mph NNW1.9 kmh NNW 3.5 mph5.6 kmh 30.02 in1016.6 mb - 0.00 in0.0 mm 0.00 in0.0 mm
12:00 PM 78.5°F25.8°C 57.7°F14.3°C 49% 2.3 mph WNW3.7 kmh WNW 3.5 mph5.6 kmh 30.02 in1016.6 mb - 0.00 in0.0 mm 0.00 in0.0 mm
11:45 AM 77.5°F25.3°C 56.9°F13.8°C 49% 1.2 mph N1.9 kmh N 3.5 mph5.6 kmh 30.03 in1016.9 mb - 0.00 in0.0 mm 0.00 in0.0 mm
11:30 AM 76.9°F24.9°C 59.0°F15.0°C 54% 1.2 mph N1.9 kmh N 4.6 mph7.4 kmh 30.03 in1016.9 mb - 0.00 in0.0 mm 0.00 in0.0 mm
11:15 AM 76.1°F24.5°C 59.7°F15.4°C 57% 1.2 mph ENE1.9 kmh ENE 2.3 mph3.7 kmh 30.04 in1017.3 mb - 0.00 in0.0 mm 0.00 in0.0 mm
11:00 AM 74.9°F23.8°C 60.5°F15.8°C 61% Calm Calm 1.2 mph1.9 kmh 30.04 in1017.3 mb - 0.00 in0.0 mm 0.00 in0.0 mm
10:45 AM 74.0°F23.3°C 61.5°F16.4°C 65% 1.2 mph E1.9 kmh E 2.3 mph3.7 kmh 30.05 in1017.6 mb - 0.00 in0.0 mm 0.00 in0.0 mm
10:30 AM 72.5°F22.5°C 62.5°F16.9°C 71% Calm Calm -- 30.05 in1017.6 mb - 0.00 in0.0 mm 0.00 in0.0 mm
10:15 AM 71.7°F22.1°C 62.6°F17.0°C 73% Calm Calm -- 30.05 in1017.6 mb - 0.00 in0.0 mm 0.00 in0.0 mm
10:00 AM 71.2°F21.8°C 61.7°F16.5°C 72% Calm Calm 1.2 mph1.9 kmh 30.06 in1017.9 mb - 0.00 in0.0 mm 0.00 in0.0 mm
09:45 AM 71.5°F21.9°C 61.2°F16.2°C 70% 1.2 mph NW1.9 kmh NW 2.3 mph3.7 kmh 30.05 in1017.6 mb - 0.00 in0.0 mm 0.00 in0.0 mm
09:30 AM 70.8°F21.6°C 61.4°F16.3°C 72% Calm Calm 2.3 mph3.7 kmh 30.05 in1017.6 mb - 0.00 in0.0 mm 0.00 in0.0 mm
09:15 AM 69.6°F20.9°C 61.4°F16.3°C 75% 1.2 mph NW1.9 kmh NW 1.2 mph1.9 kmh 30.05 in1017.6 mb - 0.00 in0.0 mm 0.00 in0.0 mm
09:00 AM 68.6°F20.3°C 61.1°F16.2°C 77% Calm Calm -- 30.05 in1017.6 mb - 0.00 in0.0 mm 0.00 in0.0 mm
08:45 AM 68.1°F20.1°C 59.9°F15.5°C 75% Calm Calm -- 30.05 in1017.6 mb - 0.00 in0.0 mm 0.00 in0.0 mm
08:30 AM 67.0°F19.4°C 59.5°F15.3°C 77% Calm Calm -- 30.05 in1017.6 mb - 0.00 in0.0 mm 0.00 in0.0 mm
08:15 AM 65.0°F18.3°C 59.0°F15.0°C 81% Calm Calm -- 30.05 in1017.6 mb - 0.00 in0.0 mm 0.00 in0.0 mm
08:00 AM 64.4°F18.0°C 59.5°F15.3°C 84% Calm Calm -- 30.05 in1017.6 mb - 0.00 in0.0 mm 0.00 in0.0 mm
07:45 AM 63.8°F17.7°C 58.9°F14.9°C 84% Calm Calm -- 30.05 in1017.6 mb - 0.00 in0.0 mm 0.00 in0.0 mm
07:30 AM 63.9°F17.7°C 59.3°F15.2°C 85% Calm Calm -- 30.04 in1017.3 mb - 0.00 in0.0 mm 0.00 in0.0 mm
07:15 AM 64.4°F18.0°C 59.8°F15.4°C 85% Calm Calm -- 30.04 in1017.3 mb - 0.00 in0.0 mm 0.00 in0.0 mm
07:00 AM 65.1°F18.4°C 60.5°F15.8°C 85% Calm Calm -- 30.03 in1016.9 mb - 0.00 in0.0 mm 0.00 in0.0 mm
06:45 AM 65.0°F18.3°C 60.4°F15.8°C 85% Calm Calm -- 30.03 in1016.9 mb - 0.00 in0.0 mm 0.00 in0.0 mm
06:30 AM 65.4°F18.6°C 60.5°F15.8°C 84% Calm Calm -- 30.03 in1016.9 mb - 0.00 in0.0 mm 0.00 in0.0 mm
06:15 AM 65.2°F18.4°C 60.3°F15.7°C 84% Calm Calm -- 30.03 in1016.9 mb - 0.00 in0.0 mm 0.00 in0.0 mm
06:00 AM 65.5°F18.6°C 60.8°F16.0°C 85% Calm Calm -- 30.02 in1016.6 mb - 0.00 in0.0 mm 0.00 in0.0 mm
05:45 AM 65.6°F18.7°C 61.0°F16.1°C 85% Calm Calm -- 30.02 in1016.6 mb - 0.00 in0.0 mm 0.00 in0.0 mm
05:30 AM 65.5°F18.6°C 61.2°F16.2°C 86% Calm Calm -- 30.02 in1016.6 mb - 0.00 in0.0 mm 0.00 in0.0 mm
05:15 AM 65.4°F18.6°C 61.1°F16.2°C 86% Calm Calm -- 30.02 in1016.6 mb - 0.00 in0.0 mm 0.00 in0.0 mm
05:00 AM 65.7°F18.7°C 61.4°F16.3°C 86% Calm Calm -- 30.02 in1016.6 mb - 0.00 in0.0 mm 0.00 in0.0 mm
04:45 AM 66.3°F19.1°C 62.0°F16.7°C 86% Calm Calm -- 30.02 in1016.6 mb - 0.00 in0.0 mm 0.00 in0.0 mm
04:30 AM 66.6°F19.2°C 62.3°F16.8°C 86% Calm Calm -- 30.03 in1016.9 mb - 0.00 in0.0 mm 0.00 in0.0 mm
04:15 AM 67.2°F19.6°C 62.9°F17.2°C 86% Calm Calm -- 30.03 in1016.9 mb - 0.00 in0.0 mm 0.00 in0.0 mm
04:00 AM 67.5°F19.7°C 63.2°F17.3°C 86% Calm Calm -- 30.03 in1016.9 mb - 0.00 in0.0 mm 0.00 in0.0 mm
03:45 AM 67.8°F19.9°C 63.5°F17.5°C 86% Calm Calm -- 30.03 in1016.9 mb - 0.00 in0.0 mm 0.00 in0.0 mm
03:30 AM 68.2°F20.1°C 63.5°F17.5°C 85% Calm Calm -- 30.03 in1016.9 mb - 0.00 in0.0 mm 0.00 in0.0 mm
03:15 AM 68.5°F20.3°C 63.8°F17.7°C 85% Calm Calm -- 30.03 in1016.9 mb - 0.00 in0.0 mm 0.00 in0.0 mm
03:00 AM 68.8°F20.4°C 63.8°F17.7°C 84% Calm Calm -- 30.04 in1017.3 mb - 0.00 in0.0 mm 0.00 in0.0 mm
02:45 AM 69.1°F20.6°C 64.1°F17.8°C 84% Calm Calm -- 30.04 in1017.3 mb - 0.00 in0.0 mm 0.00 in0.0 mm
02:30 AM 69.4°F20.8°C 64.4°F18.0°C 84% Calm Calm -- 30.05 in1017.6 mb - 0.00 in0.0 mm 0.00 in0.0 mm
02:15 AM 69.8°F21.0°C 64.4°F18.0°C 83% Calm Calm -- 30.05 in1017.6 mb - 0.00 in0.0 mm 0.00 in0.0 mm
02:00 AM 69.9°F21.1°C 64.5°F18.1°C 83% Calm Calm -- 30.05 in1017.6 mb - 0.00 in0.0 mm 0.00 in0.0 mm
01:45 AM 70.0°F21.1°C 64.6°F18.1°C 83% Calm Calm 1.2 mph1.9 kmh 30.06 in1017.9 mb - 0.00 in0.0 mm 0.00 in0.0 mm
01:30 AM 70.1°F21.2°C 64.7°F18.2°C 83% 1.2 mph N1.9 kmh N 3.5 mph5.6 kmh 30.06 in1017.9 mb - 0.00 in0.0 mm 0.00 in0.0 mm
01:15 AM 70.1°F21.2°C 64.7°F18.2°C 83% Calm Calm -- 30.06 in1017.9 mb - 0.00 in0.0 mm 0.00 in0.0 mm
01:00 AM 70.2°F21.2°C 64.8°F18.2°C 83% Calm Calm -- 30.05 in1017.6 mb - 0.00 in0.0 mm 0.00 in0.0 mm
12:45 AM 70.4°F21.3°C 65.0°F18.3°C 83% Calm Calm 1.2 mph1.9 kmh 30.06 in1017.9 mb - 0.00 in0.0 mm 0.00 in0.0 mm
12:30 AM 70.5°F21.4°C 65.1°F18.4°C 83% Calm Calm 2.3 mph3.7 kmh 30.06 in1017.9 mb - 0.00 in0.0 mm 0.00 in0.0 mm
12:15 AM 70.6°F21.4°C 65.2°F18.4°C 83% Calm Calm -- 30.06 in1017.9 mb - 0.00 in0.0 mm 0.00 in0.0 mm
12:00 AM 70.7°F21.5°C 65.3°F18.5°C 83% Calm Calm -- 30.06 in1017.9 mb - 0.00 in0.0 mm 0.00 in0.0 mm